Time;durP1;ratioP1;P1;durP2;ratioP2;P2;SDS_P1;SDS_P2;PMS_P1;PMS_P2;Temp;Humidity;BMP_temperature;BMP_pressure;BME280_temperature;BME280_humidity;BME280_pressure;Samples;Min_cycle;Max_cycle;Signal;HPM_P1;HPM_P2
2021/01/20 00:00:59;;;;;;;8.90;5.33;;;5.90;99.90;;;;;;5054407;28;20461;-65
2021/01/20 00:03:25;;;;;;;6.00;4.70;;;5.90;99.90;;;;;;5056180;28;20634;-65
2021/01/20 00:05:50;;;;;;;8.47;5.60;;;5.90;99.90;;;;;;5054611;28;20632;-65
2021/01/20 00:08:16;;;;;;;8.80;4.60;;;5.80;99.90;;;;;;5059709;28;20177;-65
2021/01/20 00:10:41;;;;;;;5.10;4.23;;;5.80;99.90;;;;;;5054892;28;20242;-65
2021/01/20 00:13:07;;;;;;;9.23;5.27;;;5.80;99.90;;;;;;5061446;28;20184;-65
2021/01/20 00:15:32;;;;;;;4.70;4.20;;;5.80;99.90;;;;;;5052733;28;20185;-65
2021/01/20 00:17:58;;;;;;;6.70;4.07;;;5.80;99.90;;;;;;5052473;28;20250;-65
2021/01/20 00:20:23;;;;;;;5.73;4.23;;;5.80;99.90;;;;;;5052270;28;20175;-65
2021/01/20 00:22:49;;;;;;;5.53;4.70;;;5.80;99.90;;;;;;5053705;28;20206;-65
2021/01/20 00:25:19;;;;;;;6.30;3.97;;;5.80;99.90;;;;;;5053696;28;20160;-65
2021/01/20 00:27:44;;;;;;;4.63;3.97;;;5.70;99.90;;;;;;5055494;28;20438;-65
2021/01/20 00:30:11;;;;;;;4.73;3.60;;;5.70;99.90;;;;;;5049984;28;20444;-65
2021/01/20 00:32:37;;;;;;;7.03;4.00;;;5.60;99.90;;;;;;5064278;28;20203;-65
2021/01/20 00:35:09;;;;;;;6.70;3.83;;;5.60;99.90;;;;;;5055326;28;20432;-65
2021/01/20 00:37:35;;;;;;;7.80;4.23;;;5.50;99.90;;;;;;5059523;28;20197;-65
2021/01/20 00:40:01;;;;;;;3.80;3.33;;;5.50;99.90;;;;;;5052012;28;20457;-65
2021/01/20 00:42:27;;;;;;;8.53;4.77;;;5.50;99.90;;;;;;5054736;28;20183;-65
2021/01/20 00:44:52;;;;;;;6.40;4.00;;;5.50;99.90;;;;;;5063136;28;21003;-65
2021/01/20 00:47:18;;;;;;;5.00;3.67;;;5.60;99.90;;;;;;5053113;28;20454;-65
2021/01/20 00:49:43;;;;;;;7.77;3.40;;;5.50;99.90;;;;;;5061274;28;20179;-65
2021/01/20 00:52:09;;;;;;;5.70;2.97;;;5.60;99.90;;;;;;5057376;28;20277;-65
2021/01/20 00:54:34;;;;;;;5.83;3.20;;;5.60;99.90;;;;;;5053267;28;20190;-65
2021/01/20 00:57:00;;;;;;;7.17;4.13;;;5.60;99.90;;;;;;5058008;28;20288;-65
2021/01/20 00:59:25;;;;;;;4.60;3.70;;;5.60;99.90;;;;;;5063478;28;20168;-65
2021/01/20 01:01:57;;;;;;;8.23;3.97;;;5.60;99.90;;;;;;5052285;28;20245;-65
2021/01/20 01:04:23;;;;;;;7.17;3.50;;;5.60;99.90;;;;;;5051497;28;20172;-65
2021/01/20 01:06:48;;;;;;;4.53;3.60;;;5.60;99.90;;;;;;5058950;28;20972;-65
2021/01/20 01:09:14;;;;;;;6.50;4.17;;;5.60;99.90;;;;;;5056247;28;20657;-65
2021/01/20 01:11:39;;;;;;;3.73;3.13;;;5.60;99.90;;;;;;5052282;28;20268;-65
2021/01/20 01:14:05;;;;;;;6.57;3.70;;;5.60;99.90;;;;;;5059417;28;20272;-65
2021/01/20 01:16:30;;;;;;;5.93;3.03;;;5.60;99.90;;;;;;5057185;28;20675;-65
2021/01/20 01:18:57;;;;;;;4.80;4.00;;;5.70;99.90;;;;;;5057962;28;20179;-65
2021/01/20 01:21:23;;;;;;;9.30;5.07;;;5.80;99.90;;;;;;5057090;28;20211;-65
2021/01/20 01:23:48;;;;;;;7.47;3.43;;;5.80;99.90;;;;;;5053774;28;20453;-65
2021/01/20 01:26:14;;;;;;;4.83;3.00;;;5.80;99.90;;;;;;5055010;28;20187;-65
2021/01/20 01:28:39;;;;;;;6.17;4.00;;;5.90;99.90;;;;;;5056703;28;20172;-65
2021/01/20 01:31:05;;;;;;;8.10;3.93;;;5.90;99.90;;;;;;5059759;28;20210;-65
2021/01/20 01:33:31;;;;;;;4.13;3.30;;;5.90;99.90;;;;;;5063006;28;20243;-65
2021/01/20 01:35:57;;;;;;;5.23;3.53;;;6.00;99.90;;;;;;5057182;28;20178;-65
2021/01/20 01:38:23;;;;;;;5.30;3.70;;;6.00;99.90;;;;;;5052151;28;20455;-65
2021/01/20 01:40:48;;;;;;;4.90;3.53;;;6.00;99.90;;;;;;5059262;28;20440;-65
2021/01/20 01:43:14;;;;;;;4.50;3.00;;;6.00;99.90;;;;;;5056014;28;20226;-65
2021/01/20 01:45:40;;;;;;;6.17;3.67;;;6.00;99.90;;;;;;5054108;28;20526;-65
2021/01/20 01:48:06;;;;;;;4.60;3.87;;;6.10;99.90;;;;;;5057317;28;20422;-65
2021/01/20 01:50:31;;;;;;;5.33;3.50;;;6.10;99.90;;;;;;5056690;28;20728;-65
2021/01/20 01:52:58;;;;;;;6.00;3.63;;;6.10;99.90;;;;;;5060255;28;20427;-65
2021/01/20 01:55:23;;;;;;;6.20;3.57;;;6.10;99.90;;;;;;5055699;28;20212;-65
2021/01/20 01:57:49;;;;;;;4.93;3.40;;;6.10;99.90;;;;;;5067599;28;20462;-65
2021/01/20 02:00:15;;;;;;;3.80;3.40;;;6.10;99.90;;;;;;5069683;28;20255;-65
2021/01/20 02:02:41;;;;;;;7.40;3.50;;;6.10;99.90;;;;;;5059135;28;20256;-65
2021/01/20 02:05:07;;;;;;;3.47;3.17;;;6.10;99.90;;;;;;5062770;28;20180;-65
2021/01/20 02:07:34;;;;;;;4.30;3.00;;;6.10;99.90;;;;;;5058591;28;20919;-65
2021/01/20 02:10:02;;;;;;;5.33;3.77;;;6.10;99.90;;;;;;5054258;28;20450;-65
2021/01/20 02:12:47;;;;;;;7.20;3.77;;;6.10;99.90;;;;;;5059816;28;20430;-65
2021/01/20 02:15:27;;;;;;;4.77;4.00;;;6.10;99.90;;;;;;5055407;28;20437;-65
2021/01/20 02:18:01;;;;;;;4.73;3.00;;;6.10;99.90;;;;;;5056568;28;20449;-65
2021/01/20 02:20:49;;;;;;;7.17;3.87;;;6.10;99.90;;;;;;5060565;28;20457;-65
2021/01/20 02:23:18;;;;;;;7.43;4.00;;;6.20;99.90;;;;;;5061496;28;20430;-65
2021/01/20 02:25:56;;;;;;;6.70;3.93;;;6.20;99.90;;;;;;5056222;28;21008;-65
2021/01/20 02:28:29;;;;;;;6.60;3.03;;;6.20;99.90;;;;;;5055638;28;20433;-65
2021/01/20 02:30:55;;;;;;;4.17;3.77;;;6.20;99.90;;;;;;5054399;28;20457;-65
2021/01/20 02:33:23;;;;;;;5.60;3.63;;;6.20;99.90;;;;;;5059599;28;20636;-65
2021/01/20 02:36:07;;;;;;;4.97;4.03;;;6.20;99.90;;;;;;5056836;28;21579;-65
2021/01/20 02:38:34;;;;;;;4.50;3.57;;;6.30;99.90;;;;;;5054666;28;20789;-65
2021/01/20 02:41:00;;;;;;;4.33;3.50;;;6.30;99.90;;;;;;5054661;28;20511;-65
2021/01/20 02:43:26;;;;;;;4.30;3.70;;;6.30;99.90;;;;;;5058261;28;20453;-65
2021/01/20 02:45:52;;;;;;;4.40;3.20;;;6.30;99.90;;;;;;5065726;28;20176;-65
2021/01/20 02:48:18;;;;;;;5.00;3.60;;;6.30;99.90;;;;;;5061381;28;20935;-65
2021/01/20 02:50:44;;;;;;;4.53;3.90;;;6.30;99.90;;;;;;5055251;28;20425;-65
2021/01/20 02:53:14;;;;;;;5.80;4.57;;;6.30;99.90;;;;;;5054411;28;20427;-65
2021/01/20 02:56:03;;;;;;;4.47;3.53;;;6.40;99.90;;;;;;5062267;28;20204;-65
2021/01/20 02:58:31;;;;;;;5.77;3.63;;;6.40;99.90;;;;;;5053455;28;20824;-65
2021/01/20 03:00:59;;;;;;;6.30;4.10;;;6.40;99.90;;;;;;5055306;28;20584;-65
2021/01/20 03:03:26;;;;;;;5.47;4.03;;;6.50;99.90;;;;;;5069172;28;20429;-65
2021/01/20 03:05:52;;;;;;;3.60;3.03;;;6.50;99.90;;;;;;5062443;28;20427;-65
2021/01/20 03:08:19;;;;;;;4.50;4.03;;;6.50;99.90;;;;;;5057612;28;20809;-65
2021/01/20 03:10:44;;;;;;;5.87;3.67;;;6.50;99.90;;;;;;5065828;28;20191;-65
2021/01/20 03:13:11;;;;;;;6.07;4.30;;;6.50;99.90;;;;;;5057404;28;20804;-65
2021/01/20 03:15:41;;;;;;;5.23;4.73;;;6.50;99.90;;;;;;5052930;28;20176;-65
2021/01/20 03:18:08;;;;;;;4.93;4.03;;;6.50;99.90;;;;;;5066976;28;20519;-65
2021/01/20 03:20:36;;;;;;;5.80;5.30;;;6.50;99.90;;;;;;5059518;28;20422;-65
2021/01/20 03:23:02;;;;;;;3.80;3.40;;;6.50;99.90;;;;;;5057731;28;20426;-65
2021/01/20 03:25:28;;;;;;;4.40;3.13;;;6.60;99.90;;;;;;5056326;28;20414;-65
2021/01/20 03:27:53;;;;;;;4.07;3.57;;;6.60;99.90;;;;;;5053438;28;20650;-65
2021/01/20 03:30:20;;;;;;;4.37;3.47;;;6.50;99.90;;;;;;5063433;28;21106;-65
2021/01/20 03:32:45;;;;;;;4.37;3.53;;;6.50;99.90;;;;;;5058431;28;20386;-65
2021/01/20 03:35:12;;;;;;;3.40;3.10;;;6.50;99.90;;;;;;5063763;28;20445;-65
2021/01/20 03:37:38;;;;;;;4.43;3.40;;;6.50;99.90;;;;;;5053560;28;20303;-65
2021/01/20 03:40:08;;;;;;;3.87;3.10;;;6.50;99.90;;;;;;5052768;28;20460;-65
2021/01/20 03:42:34;;;;;;;4.03;3.23;;;6.50;99.90;;;;;;5054802;28;20422;-65
2021/01/20 03:44:59;;;;;;;3.90;3.20;;;6.40;99.90;;;;;;5058695;28;20911;-64
2021/01/20 03:47:25;;;;;;;6.60;4.43;;;6.50;99.90;;;;;;5060680;28;20418;-64
2021/01/20 03:49:51;;;;;;;4.73;3.73;;;6.40;99.90;;;;;;5063447;28;20180;-64
2021/01/20 03:52:16;;;;;;;6.00;4.33;;;6.50;99.90;;;;;;5056007;28;20649;-64
2021/01/20 03:54:42;;;;;;;5.83;4.00;;;6.50;99.90;;;;;;5057427;28;20426;-65
2021/01/20 03:57:08;;;;;;;5.30;3.00;;;6.50;99.90;;;;;;5054671;28;20526;-64
2021/01/20 03:59:33;;;;;;;4.97;3.20;;;6.50;99.90;;;;;;5056742;28;20180;-65
2021/01/20 04:01:59;;;;;;;3.53;3.20;;;6.50;99.90;;;;;;5062291;28;20180;-65
2021/01/20 04:04:25;;;;;;;5.13;3.23;;;6.50;99.90;;;;;;5053311;28;20182;-65
2021/01/20 04:06:50;;;;;;;4.20;3.13;;;6.50;99.90;;;;;;5055833;28;20437;-65
2021/01/20 04:09:16;;;;;;;4.10;3.53;;;6.50;99.90;;;;;;5055517;28;20180;-65
2021/01/20 04:11:42;;;;;;;3.93;3.63;;;6.50;99.90;;;;;;5059891;28;20274;-65
2021/01/20 04:14:08;;;;;;;5.00;3.27;;;6.50;99.90;;;;;;5062062;28;20194;-65
2021/01/20 04:16:33;;;;;;;3.90;3.50;;;6.50;99.90;;;;;;5053351;28;20203;-65
2021/01/20 04:18:59;;;;;;;4.10;3.70;;;6.50;99.90;;;;;;5055426;28;20431;-64
2021/01/20 04:21:24;;;;;;;4.83;3.93;;;6.50;99.90;;;;;;5055050;28;20180;-65
2021/01/20 04:23:50;;;;;;;3.73;3.40;;;6.50;99.90;;;;;;5057685;28;20641;-65
2021/01/20 04:26:16;;;;;;;3.60;3.30;;;6.60;99.90;;;;;;5057604;28;20259;-65
2021/01/20 04:28:41;;;;;;;4.53;3.80;;;6.50;99.90;;;;;;5057350;28;20634;-65
2021/01/20 04:31:07;;;;;;;5.13;3.73;;;6.50;99.90;;;;;;5063295;28;20678;-65
2021/01/20 04:33:32;;;;;;;4.10;3.70;;;6.50;99.90;;;;;;5059987;28;20249;-65
2021/01/20 04:35:58;;;;;;;4.33;3.70;;;6.50;99.90;;;;;;5055912;28;20889;-65
2021/01/20 04:38:24;;;;;;;6.50;3.50;;;6.40;99.90;;;;;;5055501;28;20199;-65
2021/01/20 04:40:52;;;;;;;4.20;3.30;;;6.40;99.90;;;;;;5052792;28;20176;-65
2021/01/20 04:43:18;;;;;;;8.43;3.50;;;6.40;99.90;;;;;;5057230;28;20176;-65
2021/01/20 04:45:43;;;;;;;4.93;3.60;;;6.40;99.90;;;;;;5053342;28;20565;-65
2021/01/20 04:48:09;;;;;;;5.13;4.13;;;6.40;99.90;;;;;;5057063;28;20223;-65
2021/01/20 04:50:36;;;;;;;4.87;4.00;;;6.40;99.90;;;;;;5054459;28;20405;-64
2021/01/20 04:53:06;;;;;;;4.00;3.53;;;6.50;99.90;;;;;;5052185;28;20467;-65
2021/01/20 04:55:31;;;;;;;4.40;3.60;;;6.50;99.90;;;;;;5054466;28;20432;-65
2021/01/20 04:57:58;;;;;;;4.67;3.60;;;6.50;99.90;;;;;;5053821;28;20451;-64
2021/01/20 05:00:25;;;;;;;4.80;4.07;;;6.60;99.90;;;;;;5060295;28;20780;-64
2021/01/20 05:02:53;;;;;;;4.77;3.77;;;6.60;99.90;;;;;;5052748;28;20434;-65
2021/01/20 05:05:18;;;;;;;4.63;3.40;;;6.60;99.90;;;;;;5053084;28;20419;-65
2021/01/20 05:07:44;;;;;;;4.97;3.83;;;6.60;99.90;;;;;;5053013;28;20434;-65
2021/01/20 05:10:10;;;;;;;4.30;3.37;;;6.60;99.90;;;;;;5053545;28;20175;-65
2021/01/20 05:12:41;;;;;;;5.50;3.90;;;6.60;99.90;;;;;;5058035;28;20199;-65
2021/01/20 05:15:13;;;;;;;4.30;3.30;;;6.60;99.90;;;;;;5065637;28;20540;-64
2021/01/20 05:18:01;;;;;;;4.47;3.30;;;6.70;99.90;;;;;;5057726;28;20458;-64
2021/01/20 05:20:33;;;;;;;5.37;3.77;;;6.70;99.90;;;;;;5050367;28;21011;-65
2021/01/20 05:23:00;;;;;;;7.40;3.40;;;6.70;99.90;;;;;;5062711;28;20417;-64
2021/01/20 05:25:27;;;;;;;4.17;3.30;;;6.70;99.90;;;;;;5057578;28;20435;-64
2021/01/20 05:27:53;;;;;;;5.07;4.00;;;6.70;99.90;;;;;;5052967;28;20430;-65
2021/01/20 05:30:19;;;;;;;3.80;3.40;;;6.70;99.90;;;;;;5054063;28;20444;-65
2021/01/20 05:32:54;;;;;;;5.80;4.00;;;6.70;99.90;;;;;;5055741;28;20255;-64
2021/01/20 05:35:20;;;;;;;4.40;4.00;;;6.70;99.90;;;;;;5061894;28;20425;-65
2021/01/20 05:37:47;;;;;;;4.33;3.93;;;6.70;99.90;;;;;;5073405;28;20449;-65
2021/01/20 05:40:15;;;;;;;7.47;4.40;;;6.70;99.90;;;;;;5057268;28;20457;-65
2021/01/20 05:42:49;;;;;;;4.80;4.07;;;6.70;99.90;;;;;;5060596;28;20473;-65
2021/01/20 05:45:16;;;;;;;4.20;3.37;;;6.60;99.90;;;;;;5056292;28;20935;-65
2021/01/20 05:48:00;;;;;;;4.50;3.53;;;6.60;99.90;;;;;;5058153;28;20447;-65
2021/01/20 05:50:25;;;;;;;6.63;3.80;;;6.60;99.90;;;;;;5056356;28;20456;-65
2021/01/20 05:53:08;;;;;;;3.63;3.33;;;6.60;99.90;;;;;;5060495;28;20427;-65
2021/01/20 05:55:34;;;;;;;5.07;3.50;;;6.60;99.90;;;;;;5055972;28;20609;-64
2021/01/20 05:58:01;;;;;;;4.70;3.77;;;6.50;99.90;;;;;;5059696;28;20441;-64
2021/01/20 06:00:27;;;;;;;4.20;3.80;;;6.50;99.90;;;;;;5055928;28;20503;-65
2021/01/20 06:02:57;;;;;;;5.77;4.13;;;6.50;99.90;;;;;;5061671;28;20425;-64
2021/01/20 06:05:25;;;;;;;4.93;3.57;;;6.60;99.90;;;;;;5058812;28;20175;-64
2021/01/20 06:07:51;;;;;;;4.43;4.00;;;6.60;99.90;;;;;;5060363;28;20421;-65
2021/01/20 06:10:21;;;;;;;3.63;3.30;;;6.60;99.90;;;;;;5068221;28;20472;-64
2021/01/20 06:12:51;;;;;;;3.40;3.07;;;6.70;99.90;;;;;;5065174;28;20418;-65
2021/01/20 06:15:16;;;;;;;5.77;3.80;;;6.80;99.90;;;;;;5056460;28;20427;-65
2021/01/20 06:17:44;;;;;;;3.97;3.57;;;6.80;99.90;;;;;;5057389;28;20465;-65
2021/01/20 06:20:11;;;;;;;3.47;2.80;;;6.80;99.90;;;;;;5060376;28;20274;-65
2021/01/20 06:22:49;;;;;;;3.20;2.83;;;6.90;99.90;;;;;;5066546;28;20935;-65
2021/01/20 06:25:29;;;;;;;5.03;3.63;;;6.90;99.90;;;;;;5060339;28;20426;-65
2021/01/20 06:28:00;;;;;;;4.83;3.67;;;6.90;99.90;;;;;;5057083;28;20487;-65
2021/01/20 06:30:44;;;;;;;4.50;3.50;;;7.00;99.90;;;;;;5055252;28;20435;-65
2021/01/20 06:33:12;;;;;;;5.20;3.77;;;7.00;99.90;;;;;;5053721;28;20886;-65
2021/01/20 06:35:42;;;;;;;3.97;3.57;;;7.00;99.90;;;;;;5056865;28;20438;-65
2021/01/20 06:38:26;;;;;;;3.60;3.30;;;7.10;99.90;;;;;;5067651;28;21030;-65
2021/01/20 06:40:52;;;;;;;4.30;3.50;;;7.10;99.90;;;;;;5056209;28;20433;-65
2021/01/20 06:43:35;;;;;;;4.23;3.00;;;7.10;99.90;;;;;;5056908;28;20963;-65
2021/01/20 06:46:16;;;;;;;5.03;3.77;;;7.10;99.90;;;;;;5062663;28;20175;-65
2021/01/20 06:48:53;;;;;;;5.90;2.90;;;7.20;99.90;;;;;;5057203;28;20563;-64
2021/01/20 06:51:19;;;;;;;6.93;2.77;;;7.20;99.90;;;;;;5055700;28;20457;-65
2021/01/20 06:56:56;;;;;;;3.20;2.90;;;7.20;99.90;;;;;;5065699;28;20821;-65
2021/01/20 06:59:30;;;;;;;3.10;2.80;;;7.20;99.90;;;;;;5052216;28;20434;-65
2021/01/20 07:02:01;;;;;;;3.23;2.90;;;7.20;99.90;;;;;;5062283;28;20432;-65
2021/01/20 07:04:39;;;;;;;3.90;2.93;;;7.20;99.90;;;;;;5056891;28;20487;-65
2021/01/20 07:07:05;;;;;;;2.77;2.50;;;7.20;99.90;;;;;;5062824;28;20434;-65
2021/01/20 07:09:51;;;;;;;3.30;2.97;;;7.20;99.90;;;;;;5055827;28;20437;-65
2021/01/20 07:12:23;;;;;;;3.57;3.27;;;7.20;99.90;;;;;;5064962;28;20864;-65
2021/01/20 07:14:50;;;;;;;3.60;3.30;;;7.20;99.90;;;;;;5062855;28;20447;-65
2021/01/20 07:17:19;;;;;;;3.30;3.00;;;7.30;99.90;;;;;;5053665;28;20458;-65
2021/01/20 07:19:46;;;;;;;4.40;3.67;;;7.30;99.90;;;;;;5064800;28;20430;-65
2021/01/20 07:22:12;;;;;;;4.43;3.23;;;7.30;99.90;;;;;;5060661;28;21991;-65
2021/01/20 07:24:38;;;;;;;4.93;3.17;;;7.30;99.90;;;;;;5054351;28;20434;-65
2021/01/20 07:27:08;;;;;;;4.20;3.03;;;7.30;99.90;;;;;;5052264;28;20760;-64
2021/01/20 07:29:34;;;;;;;6.43;2.70;;;7.30;99.90;;;;;;5059085;28;20175;-64
2021/01/20 07:32:00;;;;;;;4.60;3.03;;;7.30;99.90;;;;;;5065711;28;20481;-65
2021/01/20 07:34:41;;;;;;;4.40;3.00;;;7.20;99.90;;;;;;5059841;28;20183;-65
2021/01/20 07:37:08;;;;;;;4.40;3.30;;;7.20;99.90;;;;;;5051654;28;20553;-65
2021/01/20 07:39:34;;;;;;;3.40;2.93;;;7.20;99.90;;;;;;5057290;28;20477;-65
2021/01/20 07:42:00;;;;;;;4.90;3.40;;;7.20;99.90;;;;;;5062975;28;20454;-65
2021/01/20 07:44:26;;;;;;;4.93;3.30;;;7.30;99.90;;;;;;5057011;28;20957;-64
2021/01/20 07:47:06;;;;;;;2.90;2.60;;;7.30;99.90;;;;;;5053860;28;20184;-65
2021/01/20 07:49:32;;;;;;;4.70;3.63;;;7.30;99.90;;;;;;5055807;28;20468;-65
2021/01/20 07:52:09;;;;;;;3.20;2.90;;;7.30;99.90;;;;;;5053855;28;20434;-64
2021/01/20 07:54:45;;;;;;;3.23;2.93;;;7.40;99.90;;;;;;5055683;28;20487;-64
2021/01/20 07:57:19;;;;;;;2.87;2.63;;;7.40;99.90;;;;;;5059717;28;20543;-64
2021/01/20 07:59:57;;;;;;;3.20;2.90;;;7.40;99.90;;;;;;5060528;28;20883;-65
2021/01/20 08:02:22;;;;;;;3.93;3.30;;;7.40;99.90;;;;;;5061858;28;20449;-65
2021/01/20 08:04:48;;;;;;;3.13;2.70;;;7.50;99.90;;;;;;5051550;28;20439;-65
2021/01/20 08:07:22;;;;;;;3.90;2.90;;;7.50;99.90;;;;;;5059668;28;20230;-65
2021/01/20 08:09:48;;;;;;;8.90;3.00;;;7.50;99.90;;;;;;5053465;28;20296;-65
2021/01/20 08:12:17;;;;;;;4.37;2.90;;;7.50;99.90;;;;;;5054604;28;20516;-65
2021/01/20 08:14:44;;;;;;;2.87;2.67;;;7.60;99.90;;;;;;5054699;28;20699;-65
2021/01/20 08:17:11;;;;;;;3.80;2.90;;;7.60;99.90;;;;;;5061377;28;20465;-65
2021/01/20 08:19:38;;;;;;;3.00;2.53;;;7.60;99.90;;;;;;5063864;28;20933;-65
2021/01/20 08:22:06;;;;;;;2.83;2.63;;;7.70;99.90;;;;;;5056064;28;20506;-65
2021/01/20 08:24:32;;;;;;;3.73;3.03;;;7.70;99.90;;;;;;5060010;28;20431;-65
2021/01/20 08:26:59;;;;;;;4.07;3.17;;;7.70;99.90;;;;;;5056178;28;20449;-65
2021/01/20 08:29:25;;;;;;;3.90;3.00;;;7.70;99.90;;;;;;5055814;28;20695;-65
2021/01/20 08:32:11;;;;;;;3.83;3.03;;;7.70;99.90;;;;;;5056940;28;20439;-65
2021/01/20 08:34:38;;;;;;;4.83;3.20;;;7.70;99.90;;;;;;5060450;28;20451;-64
2021/01/20 08:37:07;;;;;;;3.40;3.10;;;7.70;99.90;;;;;;5052353;28;20560;-65
2021/01/20 08:39:36;;;;;;;3.33;2.53;;;7.70;99.90;;;;;;5065426;28;20500;-65
2021/01/20 08:42:33;;;;;;;3.50;2.87;;;7.70;99.90;;;;;;5062316;28;20793;-65
2021/01/20 08:45:03;;;;;;;3.70;3.33;;;7.80;99.90;;;;;;5056395;28;20477;-65
2021/01/20 08:47:28;;;;;;;4.27;2.97;;;7.80;99.90;;;;;;5054701;28;21001;-65
2021/01/20 08:49:54;;;;;;;4.40;2.90;;;7.80;99.90;;;;;;5063543;28;20477;-65
2021/01/20 08:52:20;;;;;;;6.23;3.77;;;7.80;99.90;;;;;;5056683;28;20191;-65
2021/01/20 08:54:51;;;;;;;3.27;2.93;;;7.90;99.90;;;;;;5055470;28;20233;-65
2021/01/20 08:57:20;;;;;;;5.57;3.87;;;8.00;99.90;;;;;;5057236;28;20535;-65
2021/01/20 08:59:53;;;;;;;4.30;3.50;;;8.00;99.90;;;;;;5064345;28;20429;-65
2021/01/20 09:02:20;;;;;;;3.20;2.77;;;8.00;99.90;;;;;;5062190;28;20426;-65
2021/01/20 09:04:47;;;;;;;3.63;2.93;;;8.00;99.90;;;;;;5061093;28;20435;-65
2021/01/20 09:07:12;;;;;;;4.17;3.80;;;8.10;99.90;;;;;;5057864;28;20429;-65
2021/01/20 09:09:38;;;;;;;4.00;3.40;;;8.10;99.90;;;;;;5056795;28;20802;-65
2021/01/20 09:12:05;;;;;;;3.60;3.30;;;8.10;99.90;;;;;;5064556;28;20636;-65
2021/01/20 09:14:31;;;;;;;3.90;3.60;;;8.10;99.90;;;;;;5066853;28;20183;-65
2021/01/20 09:16:56;;;;;;;3.90;3.03;;;8.20;99.90;;;;;;5062105;28;20462;-65
2021/01/20 09:19:23;;;;;;;4.47;3.27;;;8.10;99.90;;;;;;5059903;28;20549;-65
2021/01/20 09:21:49;;;;;;;4.47;3.63;;;8.10;99.90;;;;;;5060225;28;20184;-65
2021/01/20 09:24:15;;;;;;;3.40;3.00;;;8.20;99.90;;;;;;5061224;28;20422;-65
2021/01/20 09:26:40;;;;;;;3.77;3.40;;;8.20;99.90;;;;;;5056844;28;20264;-65
2021/01/20 09:29:06;;;;;;;3.23;2.93;;;8.30;99.90;;;;;;5056667;28;20363;-65
2021/01/20 09:31:31;;;;;;;2.90;2.63;;;8.30;99.90;;;;;;5056624;28;20306;-65
2021/01/20 09:33:57;;;;;;;3.57;3.20;;;8.30;99.90;;;;;;5064555;28;20315;-65
2021/01/20 09:36:22;;;;;;;5.30;3.70;;;8.30;99.90;;;;;;5055753;28;20267;-65
2021/01/20 09:38:48;;;;;;;4.27;3.47;;;8.30;99.90;;;;;;5054114;28;20609;-65
2021/01/20 09:41:13;;;;;;;5.50;3.60;;;8.20;99.90;;;;;;5067893;28;20183;-65
2021/01/20 09:43:39;;;;;;;4.83;3.80;;;8.20;99.90;;;;;;5060090;28;20188;-65
2021/01/20 09:46:05;;;;;;;4.17;3.70;;;8.20;99.90;;;;;;5056751;28;20169;-65
2021/01/20 09:48:31;;;;;;;4.17;3.27;;;8.20;99.90;;;;;;5062055;28;20784;-65
2021/01/20 09:50:56;;;;;;;4.43;3.50;;;8.20;99.90;;;;;;5070814;28;20194;-65
2021/01/20 09:53:22;;;;;;;4.70;3.60;;;8.10;99.90;;;;;;5061410;28;20188;-65
2021/01/20 09:55:48;;;;;;;4.33;3.93;;;8.10;99.90;;;;;;5062435;28;20184;-64
2021/01/20 09:58:13;;;;;;;6.27;4.53;;;8.10;99.90;;;;;;5055892;28;20467;-65
2021/01/20 10:00:39;;;;;;;5.17;4.17;;;8.10;99.90;;;;;;5055700;28;21032;-65
2021/01/20 10:03:06;;;;;;;4.90;4.27;;;8.10;99.90;;;;;;5056971;28;20650;-65
2021/01/20 10:05:32;;;;;;;5.20;3.40;;;8.00;99.90;;;;;;5063061;28;20634;-65
2021/01/20 10:07:58;;;;;;;3.20;2.87;;;8.00;99.90;;;;;;5067650;28;20511;-65
2021/01/20 10:10:23;;;;;;;3.50;3.20;;;8.00;99.90;;;;;;5057486;28;20641;-65
2021/01/20 10:12:50;;;;;;;4.80;3.87;;;8.00;99.90;;;;;;5059726;28;20544;-65
2021/01/20 10:15:15;;;;;;;4.37;3.73;;;7.90;99.90;;;;;;5065838;28;20191;-65
2021/01/20 10:17:41;;;;;;;4.33;3.70;;;7.90;99.90;;;;;;5065495;28;20812;-65
2021/01/20 10:20:07;;;;;;;4.40;3.10;;;7.80;99.90;;;;;;5061486;28;20518;-64
2021/01/20 10:22:33;;;;;;;3.33;3.03;;;7.90;99.90;;;;;;5061237;28;20581;-65
2021/01/20 10:24:58;;;;;;;8.07;4.80;;;7.90;99.90;;;;;;5054692;28;20733;-64
2021/01/20 10:27:24;;;;;;;5.23;3.73;;;7.90;99.90;;;;;;5057430;28;20180;-65
2021/01/20 10:29:49;;;;;;;4.00;3.27;;;7.90;99.90;;;;;;5054370;28;20184;-65
2021/01/20 10:32:15;;;;;;;4.70;4.27;;;7.90;99.90;;;;;;5052081;28;20248;-65
2021/01/20 10:34:40;;;;;;;4.40;4.00;;;7.90;99.90;;;;;;5062448;28;20233;-65
2021/01/20 10:37:06;;;;;;;3.67;3.37;;;7.90;99.90;;;;;;5056958;28;20528;-65
2021/01/20 10:39:31;;;;;;;5.07;2.97;;;7.90;99.90;;;;;;5056940;28;20257;-65
2021/01/20 10:41:57;;;;;;;3.87;3.47;;;7.90;99.90;;;;;;5062188;28;20180;-65
2021/01/20 10:44:22;;;;;;;4.07;3.67;;;7.90;99.90;;;;;;5055264;28;20247;-65
2021/01/20 10:46:48;;;;;;;3.90;3.50;;;7.90;99.90;;;;;;5055110;28;20211;-65
2021/01/20 10:49:14;;;;;;;5.33;3.63;;;7.90;99.90;;;;;;5065997;28;20176;-64
2021/01/20 10:51:39;;;;;;;3.43;3.07;;;8.00;99.90;;;;;;5060194;28;20278;-65
2021/01/20 10:54:06;;;;;;;4.87;3.30;;;8.00;99.90;;;;;;5064088;28;20182;-65
2021/01/20 10:56:32;;;;;;;4.63;3.70;;;8.00;99.90;;;;;;5054138;28;20260;-65
2021/01/20 10:58:57;;;;;;;5.50;3.30;;;8.00;99.90;;;;;;5061790;28;20497;-65
2021/01/20 11:01:23;;;;;;;4.13;3.17;;;8.00;99.90;;;;;;5059260;28;20937;-65
2021/01/20 11:03:49;;;;;;;4.43;3.10;;;8.00;99.90;;;;;;5058995;28;20187;-65
2021/01/20 11:06:14;;;;;;;4.20;3.80;;;8.00;99.90;;;;;;5064031;28;20430;-65
2021/01/20 11:08:40;;;;;;;5.13;3.80;;;8.00;99.90;;;;;;5055296;28;20227;-65
2021/01/20 11:11:06;;;;;;;4.70;4.20;;;8.00;99.90;;;;;;5059803;28;20191;-65
2021/01/20 11:13:33;;;;;;;4.90;4.30;;;8.10;99.90;;;;;;5064592;28;20214;-65
2021/01/20 11:15:59;;;;;;;4.63;3.83;;;8.00;99.90;;;;;;5055930;28;20445;-65
2021/01/20 11:18:25;;;;;;;4.30;3.70;;;8.00;99.90;;;;;;5061779;28;20453;-65
2021/01/20 11:20:51;;;;;;;4.63;3.53;;;8.00;99.90;;;;;;5059185;28;20587;-65
2021/01/20 11:23:19;;;;;;;4.07;3.67;;;8.00;99.90;;;;;;5055101;28;20438;-64
2021/01/20 11:25:47;;;;;;;4.73;3.73;;;8.00;99.90;;;;;;5061007;28;20640;-65
2021/01/20 11:28:14;;;;;;;5.23;3.63;;;8.00;99.90;;;;;;5057142;28;20518;-65
2021/01/20 11:30:40;;;;;;;3.93;3.37;;;8.10;99.90;;;;;;5060889;28;20429;-65
2021/01/20 11:33:06;;;;;;;5.20;4.20;;;8.20;99.90;;;;;;5058243;28;20969;-65
2021/01/20 11:35:32;;;;;;;3.80;3.50;;;8.20;99.90;;;;;;5080160;28;20446;-65
2021/01/20 11:37:58;;;;;;;4.00;3.60;;;8.30;99.90;;;;;;5054151;28;20481;-65
2021/01/20 11:40:27;;;;;;;4.10;3.70;;;8.40;99.90;;;;;;5059502;28;20253;-65
2021/01/20 11:42:59;;;;;;;4.83;3.53;;;8.50;99.90;;;;;;5054538;28;20421;-65
2021/01/20 11:45:29;;;;;;;5.80;3.63;;;8.60;99.90;;;;;;5056633;28;20438;-65
2021/01/20 11:47:55;;;;;;;4.90;3.33;;;8.80;99.90;;;;;;5053881;28;20442;-65
2021/01/20 11:50:22;;;;;;;6.20;3.60;;;8.90;99.90;;;;;;5054421;28;20887;-65
2021/01/20 11:52:48;;;;;;;5.17;3.90;;;8.90;99.90;;;;;;5063871;28;20439;-65
2021/01/20 11:55:14;;;;;;;4.03;3.43;;;8.90;99.90;;;;;;5061842;28;20437;-65
2021/01/20 11:57:40;;;;;;;3.83;3.33;;;9.00;99.90;;;;;;5056769;28;20993;-65
2021/01/20 12:00:07;;;;;;;5.53;3.30;;;9.10;99.90;;;;;;5069647;28;20490;-65
2021/01/20 12:02:33;;;;;;;6.30;3.57;;;9.10;99.90;;;;;;5056092;28;20430;-65
2021/01/20 12:04:58;;;;;;;6.83;4.00;;;9.10;99.90;;;;;;5054000;28;20818;-65
2021/01/20 12:07:24;;;;;;;4.27;3.87;;;9.10;99.90;;;;;;5053235;28;20188;-65
2021/01/20 12:09:49;;;;;;;4.13;3.53;;;9.10;99.90;;;;;;5056008;28;20187;-65
2021/01/20 12:12:15;;;;;;;6.30;3.87;;;9.10;99.90;;;;;;5063646;28;20210;-65
2021/01/20 12:14:40;;;;;;;4.20;3.80;;;9.10;99.90;;;;;;5054502;28;20255;-65
2021/01/20 12:17:06;;;;;;;4.40;3.23;;;9.10;99.90;;;;;;5055213;28;20692;-65
2021/01/20 12:19:32;;;;;;;4.47;3.77;;;9.20;99.90;;;;;;5060439;28;20191;-65
2021/01/20 12:21:57;;;;;;;4.10;3.37;;;9.20;99.90;;;;;;5056191;28;20188;-65
2021/01/20 12:24:23;;;;;;;5.57;3.67;;;9.20;99.90;;;;;;5054800;28;20172;-65
2021/01/20 12:26:49;;;;;;;3.70;3.30;;;9.20;99.90;;;;;;5055319;28;20709;-65
2021/01/20 12:29:14;;;;;;;5.37;3.90;;;9.20;99.80;;;;;;5055764;28;20191;-65
2021/01/20 12:31:40;;;;;;;3.70;3.30;;;9.20;99.50;;;;;;5056599;28;20237;-65
2021/01/20 12:34:05;;;;;;;4.20;3.80;;;9.20;99.80;;;;;;5059949;28;20618;-65
2021/01/20 12:36:31;;;;;;;4.07;3.67;;;9.20;99.90;;;;;;5061868;28;20267;-65
2021/01/20 12:38:56;;;;;;;3.47;3.10;;;9.20;99.50;;;;;;5052682;28;20241;-64
2021/01/20 12:41:22;;;;;;;3.63;3.27;;;9.20;99.10;;;;;;5053602;28;20197;-65
2021/01/20 12:43:47;;;;;;;5.10;3.40;;;9.10;99.10;;;;;;5061138;28;20187;-65
2021/01/20 12:46:13;;;;;;;5.30;3.50;;;9.20;99.50;;;;;;5054623;28;20184;-65
2021/01/20 12:48:39;;;;;;;5.10;3.67;;;9.20;99.20;;;;;;5059500;28;20197;-65
2021/01/20 12:51:04;;;;;;;4.93;4.10;;;9.30;99.30;;;;;;5060316;28;20184;-64
2021/01/20 12:53:30;;;;;;;3.77;3.47;;;9.20;99.10;;;;;;5054319;28;20606;-65
2021/01/20 12:55:55;;;;;;;6.93;4.90;;;9.30;99.00;;;;;;5052616;28;20657;-65
2021/01/20 12:58:21;;;;;;;5.50;3.73;;;9.20;98.50;;;;;;5056825;28;20188;-65
2021/01/20 13:00:46;;;;;;;3.53;3.23;;;9.20;99.30;;;;;;5055340;28;20177;-65
2021/01/20 13:03:12;;;;;;;4.23;3.47;;;9.20;99.10;;;;;;5054588;28;20199;-65